createdAt,value
2022-10-22T00:00:06.949Z,98824.00
2022-10-22T00:01:51.557Z,98828.00
2022-10-22T00:03:23.856Z,98824.00
2022-10-22T00:04:57.352Z,98820.00
2022-10-22T00:06:30.546Z,98831.00
2022-10-22T00:08:03.766Z,98829.00
2022-10-22T00:09:37.068Z,98834.00
2022-10-22T00:11:12.982Z,98842.00
2022-10-22T00:12:46.290Z,98841.00
2022-10-22T00:14:21.527Z,98834.00
2022-10-22T00:15:54.718Z,98830.00
2022-10-22T00:17:29.308Z,98834.00
2022-10-22T00:19:02.799Z,98835.00
2022-10-22T00:20:36.282Z,98844.00
2022-10-22T00:22:10.106Z,98844.00
2022-10-22T00:23:44.720Z,98841.00
2022-10-22T00:25:18.117Z,98837.00
2022-10-22T00:26:51.478Z,98844.00
2022-10-22T00:28:25.254Z,98838.00
2022-10-22T00:29:58.483Z,98840.00
2022-10-22T00:31:31.706Z,98825.00
2022-10-22T00:33:06.200Z,98835.00
2022-10-22T00:34:39.453Z,98849.00
2022-10-22T00:36:12.494Z,98839.00
2022-10-22T00:37:45.755Z,98844.00
2022-10-22T00:39:22.473Z,98836.00
2022-10-22T00:40:55.926Z,98846.00
2022-10-22T00:42:30.410Z,98851.00
2022-10-22T00:44:06.887Z,98850.00
2022-10-22T00:45:40.127Z,98843.00
2022-10-22T00:47:13.209Z,98849.00
2022-10-22T00:48:47.768Z,98844.00
2022-10-22T00:50:28.509Z,98839.00
2022-10-22T00:52:00.927Z,98830.00
2022-10-22T00:53:39.693Z,98832.00
2022-10-22T00:55:13.881Z,98839.00
2022-10-22T00:56:49.117Z,98839.00
2022-10-22T00:58:28.842Z,98839.00
2022-10-22T01:00:01.936Z,98843.00
2022-10-22T01:01:35.823Z,98839.00
2022-10-22T01:03:09.815Z,98838.00
2022-10-22T01:04:44.920Z,98834.00
2022-10-22T01:06:25.355Z,98842.00
2022-10-22T01:07:59.221Z,98849.00
2022-10-22T01:09:43.751Z,98840.00
2022-10-22T01:11:27.558Z,98837.00
2022-10-22T01:13:23.438Z,98835.00
2022-10-22T01:15:13.068Z,98840.00
2022-10-22T01:17:00.109Z,98830.00
2022-10-22T01:18:42.538Z,98834.00
2022-10-22T01:20:40.401Z,98832.00
2022-10-22T01:22:23.206Z,98828.00
2022-10-22T01:24:34.738Z,98821.00
2022-10-22T01:28:18.243Z,98811.00
2022-10-22T01:29:57.505Z,98817.00
2022-10-22T01:31:38.219Z,98808.00
2022-10-22T01:33:14.358Z,98809.00
2022-10-22T01:34:52.787Z,98812.00
2022-10-22T01:36:28.231Z,98799.00
2022-10-22T01:38:05.978Z,98809.00
2022-10-22T01:39:41.650Z,98816.00
2022-10-22T01:41:15.752Z,98811.00
2022-10-22T01:42:58.936Z,98811.00
2022-10-22T01:46:16.645Z,98798.00
2022-10-22T01:48:07.188Z,98798.00
2022-10-22T01:50:11.533Z,98786.00
2022-10-22T01:52:03.873Z,98787.00
2022-10-22T01:53:50.277Z,98791.00
2022-10-22T01:55:31.074Z,98798.00
2022-10-22T01:57:18.955Z,98796.00
2022-10-22T01:59:04.606Z,98798.00
2022-10-22T02:00:45.897Z,98788.00
2022-10-22T02:02:37.790Z,98778.00
2022-10-22T02:04:20.382Z,98782.00
2022-10-22T02:06:00.640Z,98785.00
2022-10-22T02:07:46.693Z,98793.00
2022-10-22T02:09:23.497Z,98784.00
2022-10-22T02:11:07.846Z,98783.00
2022-10-22T02:12:43.745Z,98787.00
2022-10-22T02:14:20.398Z,98797.00
2022-10-22T02:15:55.223Z,98796.00
2022-10-22T02:17:34.250Z,98791.00
2022-10-22T02:19:16.890Z,98801.00
2022-10-22T02:20:51.122Z,98806.00
2022-10-22T02:22:26.838Z,98801.00
2022-10-22T02:24:00.164Z,98806.00
2022-10-22T02:25:37.297Z,98802.00
2022-10-22T02:27:26.859Z,98807.00
2022-10-22T02:29:12.884Z,98806.00
2022-10-22T02:30:54.986Z,98807.00
2022-10-22T02:32:35.312Z,98811.00
2022-10-22T02:34:15.022Z,98807.00
2022-10-22T02:35:49.323Z,98803.00
2022-10-22T02:37:23.790Z,98802.00
2022-10-22T02:38:57.879Z,98806.00
2022-10-22T02:40:31.492Z,98807.00
2022-10-22T02:42:05.788Z,98802.00
2022-10-22T02:43:44.382Z,98804.00
2022-10-22T02:45:19.402Z,98809.00
2022-10-22T02:46:52.958Z,98803.00
2022-10-22T02:48:27.744Z,98813.00
2022-10-22T02:50:03.569Z,98821.00
2022-10-22T02:51:36.569Z,98820.00
2022-10-22T02:53:09.847Z,98815.00
2022-10-22T02:54:43.105Z,98815.00
2022-10-22T02:56:15.411Z,98812.00
2022-10-22T02:57:48.738Z,98810.00
2022-10-22T02:59:22.078Z,98806.00
2022-10-22T03:00:54.621Z,98817.00
2022-10-22T03:02:28.405Z,98818.00
2022-10-22T03:04:28.118Z,98819.00
2022-10-22T03:06:01.069Z,98814.00
2022-10-22T03:07:34.604Z,98823.00
2022-10-22T03:09:13.077Z,98842.00
2022-10-22T03:10:45.294Z,98846.00
2022-10-22T03:12:18.764Z,98837.00
2022-10-22T03:13:51.979Z,98829.00
2022-10-22T03:15:25.395Z,98829.00
2022-10-22T03:16:58.755Z,98835.00
2022-10-22T03:18:30.935Z,98843.00
2022-10-22T03:20:06.522Z,98837.00
2022-10-22T03:21:45.381Z,98839.00
2022-10-22T03:23:20.959Z,98831.00
2022-10-22T03:24:59.754Z,98838.00
2022-10-22T03:26:33.719Z,98837.00
2022-10-22T03:28:10.158Z,98848.00
2022-10-22T03:29:46.829Z,98841.00
2022-10-22T03:31:20.032Z,98838.00
2022-10-22T03:32:52.157Z,98841.00
2022-10-22T03:34:25.859Z,98844.00
2022-10-22T03:36:01.915Z,98853.00
2022-10-22T03:37:36.764Z,98851.00
2022-10-22T03:39:10.796Z,98855.00
2022-10-22T03:40:47.058Z,98842.00
2022-10-22T03:42:20.735Z,98839.00
2022-10-22T03:43:57.529Z,98832.00
2022-10-22T03:45:29.798Z,98835.00
2022-10-22T03:47:03.074Z,98837.00
2022-10-22T03:48:36.377Z,98836.00
2022-10-22T03:50:11.193Z,98839.00
2022-10-22T03:51:45.896Z,98838.00
2022-10-22T03:53:19.090Z,98839.00
2022-10-22T03:54:52.375Z,98840.00
2022-10-22T03:56:25.803Z,98837.00
2022-10-22T03:57:58.124Z,98841.00
2022-10-22T03:59:36.517Z,98840.00
2022-10-22T04:01:12.404Z,98847.00
2022-10-22T04:02:44.606Z,98838.00
2022-10-22T04:04:17.974Z,98843.00
2022-10-22T04:05:50.146Z,98843.00
2022-10-22T04:07:24.907Z,98846.00
2022-10-22T04:08:58.401Z,98850.00
2022-10-22T04:10:31.607Z,98854.00
2022-10-22T04:12:06.481Z,98848.00
2022-10-22T04:13:40.178Z,98847.00
2022-10-22T04:15:13.273Z,98861.00
2022-10-22T04:16:45.693Z,98865.00
2022-10-22T04:18:19.440Z,98861.00
2022-10-22T04:19:52.598Z,98861.00
2022-10-22T04:21:25.590Z,98866.00
2022-10-22T04:23:02.103Z,98861.00
2022-10-22T04:24:35.349Z,98864.00
2022-10-22T04:26:09.259Z,98866.00
2022-10-22T04:27:42.839Z,98858.00
2022-10-22T04:29:16.571Z,98861.00
2022-10-22T04:30:49.748Z,98861.00
2022-10-22T04:32:22.897Z,98863.00
2022-10-22T04:33:59.085Z,98862.00
2022-10-22T04:35:32.318Z,98865.00
2022-10-22T04:37:04.833Z,98866.00
2022-10-22T04:38:39.546Z,98864.00
2022-10-22T04:40:14.041Z,98865.00
2022-10-22T04:41:47.243Z,98868.00
2022-10-22T04:43:19.673Z,98873.00
2022-10-22T04:44:52.990Z,98874.00
2022-10-22T04:46:27.278Z,98870.00
2022-10-22T04:48:00.410Z,98864.00
2022-10-22T04:49:33.594Z,98866.00
2022-10-22T04:51:07.605Z,98872.00
2022-10-22T04:52:40.899Z,98874.00
2022-10-22T04:54:15.421Z,98866.00
2022-10-22T04:55:48.730Z,98874.00
2022-10-22T04:57:21.870Z,98866.00
2022-10-22T04:58:57.470Z,98869.00
2022-10-22T05:00:30.622Z,98872.00
2022-10-22T05:02:04.002Z,98874.00
2022-10-22T05:03:36.203Z,98877.00
2022-10-22T05:05:10.180Z,98872.00
2022-10-22T05:06:44.112Z,98869.00
2022-10-22T05:08:16.582Z,98877.00
2022-10-22T05:09:51.267Z,98875.00
2022-10-22T05:11:28.723Z,98877.00
2022-10-22T05:13:01.839Z,98884.00
2022-10-22T05:14:35.300Z,98879.00
2022-10-22T05:16:09.686Z,98875.00
2022-10-22T05:17:43.031Z,98876.00
2022-10-22T05:19:19.985Z,98880.00
2022-10-22T05:20:52.189Z,98880.00
2022-10-22T05:22:25.731Z,98888.00
2022-10-22T05:24:00.725Z,98891.00
2022-10-22T05:25:37.753Z,98888.00
2022-10-22T05:27:11.122Z,98883.00
2022-10-22T05:28:43.534Z,98897.00
2022-10-22T05:30:17.072Z,98884.00
2022-10-22T05:31:50.607Z,98890.00
2022-10-22T05:33:24.602Z,98894.00
2022-10-22T05:34:58.018Z,98889.00
2022-10-22T05:36:30.286Z,98904.00
2022-10-22T05:38:03.506Z,98902.00
2022-10-22T05:39:39.847Z,98896.00
2022-10-22T05:41:17.158Z,98909.00
2022-10-22T05:42:50.602Z,98893.00
2022-10-22T05:44:23.987Z,98905.00
2022-10-22T05:45:56.521Z,98909.00
2022-10-22T05:47:31.092Z,98901.00
2022-10-22T05:49:07.746Z,98906.00
2022-10-22T05:50:39.966Z,98906.00
2022-10-22T05:52:13.325Z,98905.00
2022-10-22T05:53:46.019Z,98903.00
2022-10-22T05:55:19.433Z,98908.00
2022-10-22T05:56:55.683Z,98905.00
2022-10-22T05:58:28.023Z,98908.00
2022-10-22T06:00:01.197Z,98916.00
2022-10-22T06:01:36.440Z,98918.00
2022-10-22T06:03:08.918Z,98915.00
2022-10-22T06:04:42.127Z,98915.00
2022-10-22T06:06:22.185Z,98919.00
2022-10-22T06:07:57.613Z,98923.00
2022-10-22T06:11:10.795Z,98922.00
2022-10-22T06:12:45.797Z,98929.00
2022-10-22T06:14:20.185Z,98929.00
2022-10-22T06:15:53.832Z,98937.00
2022-10-22T06:17:26.952Z,98934.00
2022-10-22T06:19:01.779Z,98930.00
2022-10-22T06:20:36.446Z,98928.00
2022-10-22T06:22:09.792Z,98939.00
2022-10-22T06:23:44.475Z,98930.00
2022-10-22T06:25:18.214Z,98933.00
2022-10-22T06:26:52.119Z,98939.00
2022-10-22T06:28:27.457Z,98937.00
2022-10-22T06:30:00.658Z,98949.00
2022-10-22T06:31:36.757Z,98945.00
2022-10-22T06:33:09.900Z,98943.00
2022-10-22T06:34:43.244Z,98942.00
2022-10-22T06:36:20.590Z,98945.00
2022-10-22T06:37:53.906Z,98951.00
2022-10-22T06:39:27.189Z,98951.00
2022-10-22T06:41:05.435Z,98958.00
2022-10-22T06:42:39.070Z,98961.00
2022-10-22T06:44:17.689Z,98967.00
2022-10-22T06:45:50.988Z,98961.00
2022-10-22T06:47:24.108Z,98972.00
2022-10-22T06:49:04.392Z,98969.00
2022-10-22T06:50:36.964Z,98971.00
2022-10-22T06:52:10.085Z,98977.00
2022-10-22T06:53:43.478Z,98977.00
2022-10-22T06:55:17.000Z,98969.00
2022-10-22T06:56:50.330Z,98977.00
2022-10-22T06:58:23.870Z,98979.00
2022-10-22T06:59:58.686Z,98986.00
2022-10-22T07:01:34.961Z,98983.00
2022-10-22T07:03:07.345Z,98998.00
2022-10-22T07:04:40.578Z,98999.00
2022-10-22T07:06:16.126Z,98996.00
2022-10-22T07:07:49.858Z,99002.00
2022-10-22T07:09:23.056Z,99003.00
2022-10-22T07:10:58.406Z,99003.00
2022-10-22T07:12:31.527Z,99008.00
2022-10-22T07:14:04.719Z,99006.00
2022-10-22T07:15:39.977Z,99008.00
2022-10-22T07:17:13.329Z,99009.00
2022-10-22T07:18:48.137Z,99009.00
2022-10-22T07:20:21.846Z,99008.00
2022-10-22T07:21:55.115Z,99016.00
2022-10-22T07:23:29.158Z,99015.00
2022-10-22T07:25:07.191Z,99014.00
2022-10-22T07:26:41.012Z,99018.00
2022-10-22T07:28:14.477Z,99020.00
2022-10-22T07:29:48.080Z,99021.00
2022-10-22T07:31:22.677Z,99028.00
2022-10-22T07:32:55.815Z,99019.00
2022-10-22T07:34:29.171Z,99021.00
2022-10-22T07:36:05.841Z,99016.00
2022-10-22T07:37:39.380Z,99022.00
2022-10-22T07:39:12.925Z,99034.00
2022-10-22T07:40:46.113Z,99029.00
2022-10-22T07:42:19.379Z,99027.00
2022-10-22T07:43:52.026Z,99026.00
2022-10-22T07:45:25.389Z,99032.00
2022-10-22T07:46:59.858Z,99032.00
2022-10-22T07:48:34.319Z,99035.00
2022-10-22T07:50:08.487Z,99041.00
2022-10-22T07:51:42.329Z,99032.00
2022-10-22T07:53:15.982Z,99036.00
2022-10-22T07:54:49.272Z,99033.00
2022-10-22T07:56:22.490Z,99036.00
2022-10-22T07:57:55.782Z,99036.00
2022-10-22T07:59:28.884Z,99042.00
2022-10-22T08:01:05.932Z,99042.00
2022-10-22T08:02:40.858Z,99044.00
2022-10-22T08:04:14.406Z,99033.00
2022-10-22T08:05:48.306Z,99050.00
2022-10-22T08:07:21.524Z,99051.00
2022-10-22T08:08:54.931Z,99040.00
2022-10-22T08:10:28.299Z,99054.00
2022-10-22T08:12:02.611Z,99050.00
2022-10-22T08:13:35.899Z,99056.00
2022-10-22T08:15:11.206Z,99060.00
2022-10-22T08:16:44.683Z,99055.00
2022-10-22T08:18:18.292Z,99058.00
2022-10-22T08:19:51.461Z,99068.00
2022-10-22T08:21:25.032Z,99060.00
2022-10-22T08:22:58.340Z,99063.00
2022-10-22T08:24:31.581Z,99066.00
2022-10-22T08:26:04.892Z,99074.00
2022-10-22T08:27:39.088Z,99078.00
2022-10-22T08:29:12.559Z,99075.00
2022-10-22T08:30:48.043Z,99079.00
2022-10-22T08:34:02.159Z,99077.00
2022-10-22T08:35:35.422Z,99080.00
2022-10-22T08:37:10.457Z,99078.00
2022-10-22T08:38:43.645Z,99082.00
2022-10-22T08:40:26.524Z,99080.00
2022-10-22T08:42:15.867Z,99092.00
2022-10-22T08:44:43.816Z,99091.00
2022-10-22T08:46:32.181Z,99085.00
2022-10-22T08:48:29.245Z,99088.00
2022-10-22T08:50:05.365Z,99093.00
2022-10-22T08:51:40.388Z,99091.00
2022-10-22T08:53:18.364Z,99097.00
2022-10-22T08:54:58.022Z,99103.00
2022-10-22T08:56:32.703Z,99106.00
2022-10-22T08:58:21.167Z,99113.00
2022-10-22T09:00:04.719Z,99108.00
2022-10-22T09:01:46.687Z,99105.00
2022-10-22T09:03:38.004Z,99105.00
2022-10-22T09:05:33.906Z,99109.00
2022-10-22T09:07:07.086Z,99113.00
2022-10-22T09:08:43.114Z,99109.00
2022-10-22T09:10:17.611Z,99127.00
2022-10-22T09:11:55.215Z,99122.00
2022-10-22T09:13:28.633Z,99128.00
2022-10-22T09:15:01.893Z,99133.00
2022-10-22T09:16:43.261Z,99139.00
2022-10-22T09:18:36.082Z,99135.00
2022-10-22T09:20:17.659Z,99139.00
2022-10-22T09:22:01.569Z,99138.00
2022-10-22T09:23:53.298Z,99139.00
2022-10-22T09:25:30.900Z,99137.00
2022-10-22T09:27:12.041Z,99138.00
2022-10-22T09:28:51.091Z,99135.00
2022-10-22T09:30:28.378Z,99140.00
2022-10-22T09:32:01.910Z,99136.00
2022-10-22T09:33:35.369Z,99146.00
2022-10-22T09:35:12.990Z,99138.00
2022-10-22T09:36:47.726Z,99141.00
2022-10-22T09:38:26.628Z,99144.00
2022-10-22T09:40:06.321Z,99151.00
2022-10-22T09:41:39.810Z,99149.00
2022-10-22T09:43:15.450Z,99150.00
2022-10-22T09:44:55.850Z,99156.00
2022-10-22T09:46:31.198Z,99160.00
2022-10-22T09:48:17.900Z,99157.00
2022-10-22T09:49:51.435Z,99153.00
2022-10-22T09:51:36.734Z,99161.00
2022-10-22T09:53:20.371Z,99159.00
2022-10-22T09:54:54.146Z,99162.00
2022-10-22T09:56:30.454Z,99162.00
2022-10-22T09:58:03.604Z,99162.00
2022-10-22T09:59:41.192Z,99170.00
2022-10-22T10:01:21.634Z,99170.00
2022-10-22T10:03:00.727Z,99158.00
2022-10-22T10:04:37.183Z,99171.00
2022-10-22T10:06:10.820Z,99175.00
2022-10-22T10:07:44.629Z,99183.00
2022-10-22T10:09:24.072Z,99182.00
2022-10-22T10:11:01.867Z,99181.00
2022-10-22T10:12:54.100Z,99183.00
2022-10-22T10:14:41.416Z,99183.00
2022-10-22T10:16:36.900Z,99182.00
2022-10-22T10:18:26.241Z,99176.00
2022-10-22T10:20:18.872Z,99181.00
2022-10-22T10:22:10.463Z,99185.00
2022-10-22T10:23:57.345Z,99184.00
2022-10-22T10:25:57.827Z,99185.00
2022-10-22T10:27:40.363Z,99178.00
2022-10-22T10:31:27.494Z,99189.00
2022-10-22T10:33:18.592Z,99185.00
2022-10-22T10:35:07.518Z,99195.00
2022-10-22T10:36:52.766Z,99193.00
2022-10-22T10:38:43.414Z,99196.00
2022-10-22T10:40:29.713Z,99192.00
2022-10-22T10:42:24.018Z,99195.00
2022-10-22T10:44:33.071Z,99197.00
2022-10-22T10:46:19.125Z,99197.00
2022-10-22T10:48:23.255Z,99200.00
2022-10-22T10:50:17.570Z,99207.00
2022-10-22T10:52:09.287Z,99209.00
2022-10-22T10:54:00.141Z,99211.00
2022-10-22T10:55:43.021Z,99206.00
2022-10-22T10:57:39.354Z,99219.00
2022-10-22T10:59:20.076Z,99213.00
2022-10-22T11:00:59.267Z,99213.00
2022-10-22T11:03:16.878Z,99207.00
2022-10-22T11:05:27.982Z,99221.00
2022-10-22T11:07:11.468Z,99219.00
2022-10-22T11:09:07.860Z,99215.00
2022-10-22T11:10:46.390Z,99218.00
2022-10-22T11:12:28.044Z,99223.00
2022-10-22T11:14:12.282Z,99228.00
2022-10-22T11:15:53.638Z,99216.00
2022-10-22T11:17:34.139Z,99225.00
2022-10-22T11:19:22.516Z,99216.00
2022-10-22T11:21:15.369Z,99222.00
2022-10-22T11:23:18.250Z,99227.00
2022-10-22T11:24:58.913Z,99213.00
2022-10-22T11:26:45.298Z,99220.00
2022-10-22T11:28:24.583Z,99209.00
2022-10-22T11:30:05.183Z,99217.00
2022-10-22T11:31:39.900Z,99220.00
2022-10-22T11:33:25.622Z,99230.00
2022-10-22T11:35:04.982Z,99231.00
2022-10-22T11:36:39.835Z,99223.00
2022-10-22T11:38:17.567Z,99223.00
2022-10-22T11:39:54.079Z,99228.00
2022-10-22T11:41:33.124Z,99229.00
2022-10-22T11:43:08.707Z,99223.00
2022-10-22T11:44:59.923Z,99229.00
2022-10-22T11:46:54.530Z,99223.00
2022-10-22T11:48:36.108Z,99224.00
2022-10-22T11:50:25.205Z,99226.00
2022-10-22T11:52:24.884Z,99218.00
2022-10-22T11:54:02.245Z,99225.00
2022-10-22T11:55:47.960Z,99228.00
2022-10-22T11:57:28.213Z,99220.00
2022-10-22T11:59:01.818Z,99227.00
2022-10-22T12:00:47.140Z,99223.00
2022-10-22T12:02:44.397Z,99232.00
2022-10-22T12:04:23.670Z,99236.00
2022-10-22T12:06:20.753Z,99234.00
2022-10-22T12:07:58.317Z,99243.00
2022-10-22T12:09:34.424Z,99231.00
2022-10-22T12:11:18.013Z,99235.00
2022-10-22T12:12:58.042Z,99253.00
2022-10-22T12:14:40.880Z,99236.00
2022-10-22T12:16:23.615Z,99241.00
2022-10-22T12:20:02.917Z,99243.00
2022-10-22T12:21:36.426Z,99235.00
2022-10-22T12:23:14.251Z,99240.00
2022-10-22T12:24:50.538Z,99243.00
2022-10-22T12:28:04.801Z,99240.00
2022-10-22T12:29:38.225Z,99238.00
2022-10-22T12:31:18.077Z,99244.00
2022-10-22T12:32:54.866Z,99239.00
2022-10-22T12:34:29.371Z,99241.00
2022-10-22T12:36:04.117Z,99241.00
2022-10-22T12:37:37.830Z,99234.00
2022-10-22T12:39:16.047Z,99238.00
2022-10-22T12:40:51.880Z,99233.00
2022-10-22T12:42:26.524Z,99237.00
2022-10-22T12:44:04.803Z,99227.00
2022-10-22T12:45:40.322Z,99225.00
2022-10-22T12:47:18.702Z,99233.00
2022-10-22T12:48:51.049Z,99227.00
2022-10-22T12:50:33.953Z,99234.00
2022-10-22T12:52:16.772Z,99233.00
2022-10-22T12:53:53.639Z,99238.00
2022-10-22T12:55:28.048Z,99222.00
2022-10-22T12:57:01.761Z,99236.00
2022-10-22T12:58:40.544Z,99227.00
2022-10-22T13:00:26.928Z,99232.00
2022-10-22T13:02:01.438Z,99234.00
2022-10-22T13:03:41.559Z,99227.00
2022-10-22T13:05:27.042Z,99226.00
2022-10-22T13:07:21.871Z,99234.00
2022-10-22T13:09:14.659Z,99227.00
2022-10-22T13:10:53.448Z,99236.00
2022-10-22T13:12:27.898Z,99234.00
2022-10-22T13:14:05.000Z,99226.00
2022-10-22T13:15:41.109Z,99229.00
2022-10-22T13:17:17.304Z,99225.00
2022-10-22T13:18:53.564Z,99220.00
2022-10-22T13:20:27.230Z,99219.00
2022-10-22T13:22:00.690Z,99214.00
2022-10-22T13:23:35.618Z,99220.00
2022-10-22T13:25:25.195Z,99223.00
2022-10-22T13:26:59.164Z,99222.00
2022-10-22T13:28:33.292Z,99212.00
2022-10-22T13:30:20.530Z,99217.00
2022-10-22T13:31:55.318Z,99217.00
2022-10-22T13:33:35.290Z,99209.00
2022-10-22T13:35:24.457Z,99212.00
2022-10-22T13:36:57.586Z,99215.00
2022-10-22T13:38:31.286Z,99223.00
2022-10-22T13:40:12.827Z,99225.00
2022-10-22T13:41:46.265Z,99228.00
2022-10-22T13:43:20.839Z,99236.00
2022-10-22T13:44:59.050Z,99228.00
2022-10-22T13:46:32.970Z,99227.00
2022-10-22T13:48:07.181Z,99226.00
2022-10-22T13:49:43.200Z,99234.00
2022-10-22T13:51:22.191Z,99237.00
2022-10-22T13:52:58.119Z,99242.00
2022-10-22T13:54:31.643Z,99241.00
2022-10-22T13:56:05.080Z,99235.00
2022-10-22T13:57:37.391Z,99232.00
2022-10-22T13:59:10.889Z,99237.00
2022-10-22T14:00:47.679Z,99234.00
2022-10-22T14:02:24.551Z,99233.00
2022-10-22T14:04:01.916Z,99232.00
2022-10-22T14:05:35.244Z,99239.00
2022-10-22T14:07:16.692Z,99236.00
2022-10-22T14:08:56.003Z,99242.00
2022-10-22T14:10:30.015Z,99234.00
2022-10-22T14:12:12.353Z,99243.00
2022-10-22T14:13:45.736Z,99242.00
2022-10-22T14:15:22.412Z,99248.00
2022-10-22T14:16:55.664Z,99248.00
2022-10-22T14:18:31.740Z,99250.00
2022-10-22T14:20:05.659Z,99254.00
2022-10-22T14:21:39.433Z,99252.00
2022-10-22T14:23:21.268Z,99243.00
2022-10-22T14:24:55.164Z,99253.00
2022-10-22T14:26:33.154Z,99253.00
2022-10-22T14:28:06.489Z,99245.00
2022-10-22T14:29:40.323Z,99245.00
2022-10-22T14:31:14.189Z,99259.00
2022-10-22T14:32:48.701Z,99253.00
2022-10-22T14:34:21.966Z,99247.00
2022-10-22T14:35:55.450Z,99263.00
2022-10-22T14:37:28.507Z,99257.00
2022-10-22T14:39:08.080Z,99262.00
2022-10-22T14:40:42.869Z,99265.00
2022-10-22T14:42:16.807Z,99262.00
2022-10-22T14:43:51.257Z,99264.00
2022-10-22T14:45:27.826Z,99266.00
2022-10-22T14:47:01.165Z,99260.00
2022-10-22T14:48:34.254Z,99257.00
2022-10-22T14:50:08.557Z,99265.00
2022-10-22T14:51:42.681Z,99258.00
2022-10-22T14:53:17.781Z,99262.00
2022-10-22T14:54:52.304Z,99260.00
2022-10-22T14:56:25.598Z,99263.00
2022-10-22T14:57:58.932Z,99268.00
2022-10-22T14:59:32.252Z,99270.00
2022-10-22T15:01:05.900Z,99270.00
2022-10-22T15:02:39.513Z,99271.00
2022-10-22T15:04:12.941Z,99268.00
2022-10-22T15:05:46.923Z,99267.00
2022-10-22T15:07:21.413Z,99280.00
2022-10-22T15:08:54.929Z,99277.00
2022-10-22T15:10:29.719Z,99280.00
2022-10-22T15:12:02.798Z,99272.00
2022-10-22T15:13:36.274Z,99278.00
2022-10-22T15:15:10.570Z,99278.00
2022-10-22T15:16:43.854Z,99280.00
2022-10-22T15:18:17.214Z,99281.00
2022-10-22T15:19:50.451Z,99280.00
2022-10-22T15:21:24.160Z,99284.00
2022-10-22T15:22:57.873Z,99276.00
2022-10-22T15:24:31.135Z,99273.00
2022-10-22T15:26:08.759Z,99274.00
2022-10-22T15:27:42.434Z,99270.00
2022-10-22T15:29:15.591Z,99283.00
2022-10-22T15:30:54.881Z,99270.00
2022-10-22T15:32:29.137Z,99283.00
2022-10-22T15:34:02.562Z,99280.00
2022-10-22T15:35:36.028Z,99282.00
2022-10-22T15:37:12.876Z,99286.00
2022-10-22T15:38:46.473Z,99288.00
2022-10-22T15:40:19.659Z,99275.00
2022-10-22T15:41:56.178Z,99283.00
2022-10-22T15:43:28.492Z,99287.00
2022-10-22T15:45:02.359Z,99289.00
2022-10-22T15:46:37.185Z,99280.00
2022-10-22T15:48:13.528Z,99285.00
2022-10-22T15:49:48.872Z,99278.00
2022-10-22T15:51:22.709Z,99281.00
2022-10-22T15:52:55.888Z,99282.00
2022-10-22T15:54:31.693Z,99280.00
2022-10-22T15:56:05.646Z,99289.00
2022-10-22T15:57:45.647Z,99272.00
2022-10-22T15:59:20.098Z,99269.00
2022-10-22T16:00:53.473Z,99281.00
2022-10-22T16:02:26.822Z,99277.00
2022-10-22T16:04:02.563Z,99275.00
2022-10-22T16:05:35.725Z,99273.00
2022-10-22T16:07:09.262Z,99283.00
2022-10-22T16:08:42.477Z,99281.00
2022-10-22T16:10:20.893Z,99289.00
2022-10-22T16:11:56.118Z,99287.00
2022-10-22T16:13:29.744Z,99286.00
2022-10-22T16:15:02.918Z,99289.00
2022-10-22T16:16:39.701Z,99286.00
2022-10-22T16:18:12.847Z,99290.00
2022-10-22T16:19:46.110Z,99289.00
2022-10-22T16:21:20.412Z,99294.00
2022-10-22T16:22:52.621Z,99293.00
2022-10-22T16:24:25.841Z,99279.00
2022-10-22T16:26:02.556Z,99291.00
2022-10-22T16:27:35.669Z,99297.00
2022-10-22T16:29:12.458Z,99299.00
2022-10-22T16:30:45.791Z,99308.00
2022-10-22T16:32:19.061Z,99309.00
2022-10-22T16:33:52.552Z,99306.00
2022-10-22T16:35:25.791Z,99293.00
2022-10-22T16:36:59.194Z,99297.00
2022-10-22T16:38:32.825Z,99300.00
2022-10-22T16:40:10.691Z,99305.00
2022-10-22T16:41:43.765Z,99314.00
2022-10-22T16:43:17.410Z,99309.00
2022-10-22T16:44:52.057Z,99300.00
2022-10-22T16:46:25.105Z,99311.00
2022-10-22T16:47:58.217Z,99309.00
2022-10-22T16:49:31.457Z,99307.00
2022-10-22T16:51:09.157Z,99316.00
2022-10-22T16:52:42.517Z,99321.00
2022-10-22T16:54:15.735Z,99306.00
2022-10-22T16:55:48.965Z,99312.00
2022-10-22T16:57:22.668Z,99297.00
2022-10-22T16:59:01.068Z,99300.00
2022-10-22T17:00:36.381Z,99309.00
2022-10-22T17:02:11.168Z,99306.00
2022-10-22T17:03:44.422Z,99304.00
2022-10-22T17:05:18.130Z,99315.00
2022-10-22T17:06:52.028Z,99317.00
2022-10-22T17:08:25.377Z,99312.00
2022-10-22T17:09:58.791Z,99306.00
2022-10-22T17:11:36.260Z,99324.00
2022-10-22T17:13:11.422Z,99321.00
2022-10-22T17:14:44.881Z,99319.00
2022-10-22T17:16:22.342Z,99325.00
2022-10-22T17:17:55.760Z,99326.00
2022-10-22T17:19:29.196Z,99322.00
2022-10-22T17:21:02.450Z,99330.00
2022-10-22T17:22:35.645Z,99330.00
2022-10-22T17:24:11.554Z,99331.00
2022-10-22T17:25:50.034Z,99336.00
2022-10-22T17:27:23.283Z,99336.00
2022-10-22T17:28:56.815Z,99343.00
2022-10-22T17:30:30.329Z,99337.00
2022-10-22T17:32:05.258Z,99336.00
2022-10-22T17:33:38.821Z,99338.00
2022-10-22T17:35:15.188Z,99339.00
2022-10-22T17:36:48.349Z,99342.00
2022-10-22T17:38:21.594Z,99337.00
2022-10-22T17:39:54.802Z,99343.00
2022-10-22T17:41:32.046Z,99347.00
2022-10-22T17:43:05.221Z,99342.00
2022-10-22T17:44:38.502Z,99344.00
2022-10-22T17:46:18.316Z,99336.00
2022-10-22T17:47:52.964Z,99341.00
2022-10-22T17:49:27.161Z,99335.00
2022-10-22T17:51:00.611Z,99334.00
2022-10-22T17:52:34.401Z,99338.00
2022-10-22T17:54:09.905Z,99334.00
2022-10-22T17:55:43.397Z,99340.00
2022-10-22T17:57:18.090Z,99344.00
2022-10-22T17:58:52.548Z,99354.00
2022-10-22T18:00:25.691Z,99345.00
2022-10-22T18:02:02.308Z,99353.00
2022-10-22T18:03:37.269Z,99357.00
2022-10-22T18:05:12.714Z,99362.00
2022-10-22T18:06:46.671Z,99358.00
2022-10-22T18:08:19.944Z,99358.00
2022-10-22T18:09:53.170Z,99358.00
2022-10-22T18:11:31.407Z,99360.00
2022-10-22T18:13:04.559Z,99357.00
2022-10-22T18:14:37.935Z,99351.00
2022-10-22T18:16:11.691Z,99353.00
2022-10-22T18:17:47.117Z,99353.00
2022-10-22T18:19:24.494Z,99361.00
2022-10-22T18:20:57.960Z,99357.00
2022-10-22T18:22:32.380Z,99352.00
2022-10-22T18:24:07.292Z,99355.00
2022-10-22T18:25:40.930Z,99351.00
2022-10-22T18:27:14.446Z,99355.00
2022-10-22T18:28:49.071Z,99352.00
2022-10-22T18:30:22.467Z,99360.00
2022-10-22T18:31:55.895Z,99360.00
2022-10-22T18:33:28.979Z,99360.00
2022-10-22T18:35:03.514Z,99363.00
2022-10-22T18:36:37.747Z,99356.00
2022-10-22T18:38:15.222Z,99362.00
2022-10-22T18:39:48.289Z,99357.00
2022-10-22T18:41:22.425Z,99373.00
2022-10-22T18:42:55.878Z,99367.00
2022-10-22T18:44:29.269Z,99354.00
2022-10-22T18:46:03.281Z,99364.00
2022-10-22T18:47:41.015Z,99367.00
2022-10-22T18:49:19.395Z,99370.00
2022-10-22T18:51:03.054Z,99364.00
2022-10-22T18:52:36.638Z,99362.00
2022-10-22T18:54:22.675Z,99356.00
2022-10-22T18:55:57.194Z,99350.00
2022-10-22T18:57:30.522Z,99355.00
2022-10-22T18:59:03.989Z,99353.00
2022-10-22T19:00:38.648Z,99353.00
2022-10-22T19:02:11.775Z,99353.00
2022-10-22T19:03:45.470Z,99354.00
2022-10-22T19:05:18.920Z,99352.00
2022-10-22T19:06:54.506Z,99351.00
2022-10-22T19:08:27.644Z,99353.00
2022-10-22T19:10:00.833Z,99352.00
2022-10-22T19:11:34.587Z,99353.00